sensor_id;sensor_type;location;lat;lon;timestamp;P1;durP1;ratioP1;P2;durP2;ratioP2
37693;SDS011;23531;50.122;8.644;2024-03-02T00:00:33;12.13;;;8.48;;
37693;SDS011;23531;50.122;8.644;2024-03-02T00:02:40;12.55;;;8.35;;
37693;SDS011;23531;50.122;8.644;2024-03-02T00:04:43;16.42;;;8.52;;
37693;SDS011;23531;50.122;8.644;2024-03-02T00:06:46;13.93;;;8.90;;
37693;SDS011;23531;50.122;8.644;2024-03-02T00:08:47;12.27;;;8.02;;
37693;SDS011;23531;50.122;8.644;2024-03-02T00:10:49;14.75;;;8.68;;
37693;SDS011;23531;50.122;8.644;2024-03-02T00:12:50;11.98;;;8.77;;
37693;SDS011;23531;50.122;8.644;2024-03-02T00:14:51;12.35;;;8.88;;
37693;SDS011;23531;50.122;8.644;2024-03-02T00:16:54;12.90;;;8.90;;
37693;SDS011;23531;50.122;8.644;2024-03-02T00:18:58;12.35;;;8.23;;
37693;SDS011;23531;50.122;8.644;2024-03-02T00:21:02;12.25;;;8.25;;
37693;SDS011;23531;50.122;8.644;2024-03-02T00:23:06;11.32;;;8.35;;
37693;SDS011;23531;50.122;8.644;2024-03-02T00:25:08;13.38;;;8.57;;
37693;SDS011;23531;50.122;8.644;2024-03-02T00:27:10;16.75;;;8.73;;
37693;SDS011;23531;50.122;8.644;2024-03-02T00:29:15;11.63;;;8.32;;
37693;SDS011;23531;50.122;8.644;2024-03-02T00:31:19;12.40;;;8.50;;
37693;SDS011;23531;50.122;8.644;2024-03-02T00:33:21;12.52;;;8.68;;
37693;SDS011;23531;50.122;8.644;2024-03-02T00:35:24;13.77;;;9.27;;
37693;SDS011;23531;50.122;8.644;2024-03-02T00:37:25;16.83;;;9.60;;
37693;SDS011;23531;50.122;8.644;2024-03-02T00:39:26;15.05;;;9.63;;
37693;SDS011;23531;50.122;8.644;2024-03-02T00:41:29;14.98;;;9.38;;
37693;SDS011;23531;50.122;8.644;2024-03-02T00:46:00;17.75;;;9.82;;
37693;SDS011;23531;50.122;8.644;2024-03-02T00:48:00;18.55;;;10.00;;
37693;SDS011;23531;50.122;8.644;2024-03-02T00:50:02;15.38;;;9.55;;
37693;SDS011;23531;50.122;8.644;2024-03-02T00:52:05;13.75;;;9.45;;
37693;SDS011;23531;50.122;8.644;2024-03-02T00:54:08;14.40;;;10.10;;
37693;SDS011;23531;50.122;8.644;2024-03-02T00:56:10;13.05;;;9.63;;
37693;SDS011;23531;50.122;8.644;2024-03-02T00:58:11;18.30;;;10.50;;
37693;SDS011;23531;50.122;8.644;2024-03-02T01:00:13;14.88;;;9.38;;
37693;SDS011;23531;50.122;8.644;2024-03-02T01:02:17;18.35;;;11.00;;
37693;SDS011;23531;50.122;8.644;2024-03-02T01:04:20;17.08;;;10.02;;
37693;SDS011;23531;50.122;8.644;2024-03-02T01:06:21;15.73;;;9.98;;
37693;SDS011;23531;50.122;8.644;2024-03-02T01:08:23;15.50;;;10.30;;
37693;SDS011;23531;50.122;8.644;2024-03-02T01:10:25;15.05;;;9.68;;
37693;SDS011;23531;50.122;8.644;2024-03-02T01:12:26;14.57;;;9.30;;
37693;SDS011;23531;50.122;8.644;2024-03-02T01:14:28;16.58;;;9.52;;
37693;SDS011;23531;50.122;8.644;2024-03-02T01:16:29;13.68;;;9.15;;
37693;SDS011;23531;50.122;8.644;2024-03-02T01:18:31;16.10;;;10.45;;
37693;SDS011;23531;50.122;8.644;2024-03-02T01:20:31;17.30;;;10.85;;
37693;SDS011;23531;50.122;8.644;2024-03-02T01:22:32;14.48;;;10.10;;
37693;SDS011;23531;50.122;8.644;2024-03-02T01:24:35;14.52;;;9.77;;
37693;SDS011;23531;50.122;8.644;2024-03-02T01:26:37;14.88;;;9.40;;
37693;SDS011;23531;50.122;8.644;2024-03-02T01:28:38;13.07;;;9.02;;
37693;SDS011;23531;50.122;8.644;2024-03-02T01:30:38;16.00;;;9.90;;
37693;SDS011;23531;50.122;8.644;2024-03-02T01:32:40;16.02;;;9.27;;
37693;SDS011;23531;50.122;8.644;2024-03-02T01:34:40;15.52;;;9.98;;
37693;SDS011;23531;50.122;8.644;2024-03-02T01:36:42;11.82;;;8.75;;
37693;SDS011;23531;50.122;8.644;2024-03-02T01:38:43;14.75;;;10.07;;
37693;SDS011;23531;50.122;8.644;2024-03-02T01:40:46;14.45;;;10.00;;
37693;SDS011;23531;50.122;8.644;2024-03-02T01:42:47;13.80;;;10.10;;
37693;SDS011;23531;50.122;8.644;2024-03-02T01:44:48;14.00;;;9.38;;
37693;SDS011;23531;50.122;8.644;2024-03-02T01:46:49;14.93;;;9.82;;
37693;SDS011;23531;50.122;8.644;2024-03-02T01:48:50;16.15;;;9.80;;
37693;SDS011;23531;50.122;8.644;2024-03-02T01:50:52;17.00;;;11.18;;
37693;SDS011;23531;50.122;8.644;2024-03-02T01:52:54;18.75;;;10.43;;
37693;SDS011;23531;50.122;8.644;2024-03-02T01:54:56;17.13;;;10.77;;
37693;SDS011;23531;50.122;8.644;2024-03-02T01:56:58;16.35;;;11.20;;
37693;SDS011;23531;50.122;8.644;2024-03-02T01:59:00;15.57;;;10.68;;
37693;SDS011;23531;50.122;8.644;2024-03-02T02:01:01;18.02;;;10.77;;
37693;SDS011;23531;50.122;8.644;2024-03-02T02:03:03;16.25;;;10.88;;
37693;SDS011;23531;50.122;8.644;2024-03-02T02:05:05;19.45;;;11.55;;
37693;SDS011;23531;50.122;8.644;2024-03-02T02:07:06;16.23;;;10.70;;
37693;SDS011;23531;50.122;8.644;2024-03-02T02:09:07;19.02;;;11.63;;
37693;SDS011;23531;50.122;8.644;2024-03-02T02:11:08;16.95;;;10.77;;
37693;SDS011;23531;50.122;8.644;2024-03-02T02:13:11;15.90;;;11.10;;
37693;SDS011;23531;50.122;8.644;2024-03-02T02:15:22;17.13;;;10.85;;
37693;SDS011;23531;50.122;8.644;2024-03-02T02:17:27;18.90;;;11.48;;
37693;SDS011;23531;50.122;8.644;2024-03-02T02:19:29;20.60;;;12.02;;
37693;SDS011;23531;50.122;8.644;2024-03-02T02:21:30;17.77;;;11.15;;
37693;SDS011;23531;50.122;8.644;2024-03-02T02:23:32;19.20;;;11.82;;
37693;SDS011;23531;50.122;8.644;2024-03-02T02:25:33;17.10;;;11.35;;
37693;SDS011;23531;50.122;8.644;2024-03-02T02:27:35;19.52;;;11.98;;
37693;SDS011;23531;50.122;8.644;2024-03-02T02:29:36;19.30;;;12.70;;
37693;SDS011;23531;50.122;8.644;2024-03-02T02:31:37;21.55;;;12.38;;
37693;SDS011;23531;50.122;8.644;2024-03-02T02:33:39;17.98;;;11.48;;
37693;SDS011;23531;50.122;8.644;2024-03-02T02:35:41;17.95;;;12.25;;
37693;SDS011;23531;50.122;8.644;2024-03-02T02:37:43;19.13;;;11.88;;
37693;SDS011;23531;50.122;8.644;2024-03-02T02:39:46;15.35;;;11.13;;
37693;SDS011;23531;50.122;8.644;2024-03-02T02:41:47;21.02;;;13.52;;
37693;SDS011;23531;50.122;8.644;2024-03-02T02:43:49;17.58;;;11.07;;
37693;SDS011;23531;50.122;8.644;2024-03-02T02:45:50;18.15;;;12.07;;
37693;SDS011;23531;50.122;8.644;2024-03-02T02:47:52;19.13;;;11.90;;
37693;SDS011;23531;50.122;8.644;2024-03-02T02:49:53;18.23;;;11.57;;
37693;SDS011;23531;50.122;8.644;2024-03-02T02:51:54;17.55;;;11.98;;
37693;SDS011;23531;50.122;8.644;2024-03-02T02:53:57;19.70;;;12.40;;
37693;SDS011;23531;50.122;8.644;2024-03-02T02:55:57;16.15;;;11.60;;
37693;SDS011;23531;50.122;8.644;2024-03-02T02:57:59;16.13;;;11.55;;
37693;SDS011;23531;50.122;8.644;2024-03-02T03:00:01;19.10;;;11.98;;
37693;SDS011;23531;50.122;8.644;2024-03-02T03:02:10;17.35;;;12.20;;
37693;SDS011;23531;50.122;8.644;2024-03-02T03:04:11;18.73;;;11.90;;
37693;SDS011;23531;50.122;8.644;2024-03-02T03:06:13;17.55;;;11.75;;
37693;SDS011;23531;50.122;8.644;2024-03-02T03:08:14;14.43;;;10.32;;
37693;SDS011;23531;50.122;8.644;2024-03-02T03:10:17;18.25;;;12.65;;
37693;SDS011;23531;50.122;8.644;2024-03-02T03:12:18;19.17;;;12.35;;
37693;SDS011;23531;50.122;8.644;2024-03-02T03:14:20;20.88;;;13.05;;
37693;SDS011;23531;50.122;8.644;2024-03-02T03:16:21;19.30;;;12.43;;
37693;SDS011;23531;50.122;8.644;2024-03-02T03:18:22;19.23;;;12.68;;
37693;SDS011;23531;50.122;8.644;2024-03-02T03:20:23;21.08;;;14.05;;
37693;SDS011;23531;50.122;8.644;2024-03-02T03:22:24;18.67;;;12.80;;
37693;SDS011;23531;50.122;8.644;2024-03-02T03:24:25;21.42;;;13.48;;
37693;SDS011;23531;50.122;8.644;2024-03-02T03:26:28;21.48;;;13.85;;
37693;SDS011;23531;50.122;8.644;2024-03-02T03:28:29;21.35;;;13.77;;
37693;SDS011;23531;50.122;8.644;2024-03-02T03:30:30;18.67;;;12.32;;
37693;SDS011;23531;50.122;8.644;2024-03-02T03:32:31;20.95;;;13.10;;
37693;SDS011;23531;50.122;8.644;2024-03-02T03:34:33;20.60;;;13.98;;
37693;SDS011;23531;50.122;8.644;2024-03-02T03:36:35;19.33;;;12.65;;
37693;SDS011;23531;50.122;8.644;2024-03-02T03:38:38;21.20;;;13.60;;
37693;SDS011;23531;50.122;8.644;2024-03-02T03:40:39;23.42;;;14.38;;
37693;SDS011;23531;50.122;8.644;2024-03-02T03:42:42;19.42;;;13.90;;
37693;SDS011;23531;50.122;8.644;2024-03-02T03:44:44;21.38;;;13.07;;
37693;SDS011;23531;50.122;8.644;2024-03-02T03:46:46;23.95;;;15.07;;
37693;SDS011;23531;50.122;8.644;2024-03-02T03:48:47;21.85;;;15.07;;
37693;SDS011;23531;50.122;8.644;2024-03-02T03:50:48;20.88;;;14.27;;
37693;SDS011;23531;50.122;8.644;2024-03-02T03:52:50;24.23;;;15.32;;
37693;SDS011;23531;50.122;8.644;2024-03-02T03:54:50;24.30;;;15.02;;
37693;SDS011;23531;50.122;8.644;2024-03-02T03:56:52;23.33;;;14.15;;
37693;SDS011;23531;50.122;8.644;2024-03-02T03:58:54;22.50;;;13.60;;
37693;SDS011;23531;50.122;8.644;2024-03-02T04:00:56;17.77;;;12.82;;
37693;SDS011;23531;50.122;8.644;2024-03-02T04:02:57;19.42;;;12.80;;
37693;SDS011;23531;50.122;8.644;2024-03-02T04:04:58;19.38;;;13.15;;
37693;SDS011;23531;50.122;8.644;2024-03-02T04:06:59;21.80;;;14.02;;
37693;SDS011;23531;50.122;8.644;2024-03-02T04:09:00;18.92;;;13.02;;
37693;SDS011;23531;50.122;8.644;2024-03-02T04:11:01;21.17;;;14.63;;
37693;SDS011;23531;50.122;8.644;2024-03-02T04:13:04;22.95;;;13.80;;
37693;SDS011;23531;50.122;8.644;2024-03-02T04:15:07;21.20;;;13.88;;
37693;SDS011;23531;50.122;8.644;2024-03-02T04:17:08;21.20;;;13.60;;
37693;SDS011;23531;50.122;8.644;2024-03-02T04:19:09;22.30;;;14.07;;
37693;SDS011;23531;50.122;8.644;2024-03-02T04:21:11;24.20;;;15.38;;
37693;SDS011;23531;50.122;8.644;2024-03-02T04:23:12;25.45;;;15.20;;
37693;SDS011;23531;50.122;8.644;2024-03-02T04:25:13;23.10;;;15.95;;
37693;SDS011;23531;50.122;8.644;2024-03-02T04:27:15;25.00;;;15.10;;
37693;SDS011;23531;50.122;8.644;2024-03-02T04:29:16;24.70;;;14.68;;
37693;SDS011;23531;50.122;8.644;2024-03-02T04:31:20;21.65;;;13.98;;
37693;SDS011;23531;50.122;8.644;2024-03-02T04:33:22;25.30;;;15.60;;
37693;SDS011;23531;50.122;8.644;2024-03-02T04:35:22;24.95;;;15.15;;
37693;SDS011;23531;50.122;8.644;2024-03-02T04:37:23;24.08;;;14.73;;
37693;SDS011;23531;50.122;8.644;2024-03-02T04:39:25;19.98;;;13.70;;
37693;SDS011;23531;50.122;8.644;2024-03-02T04:41:27;20.80;;;13.80;;
37693;SDS011;23531;50.122;8.644;2024-03-02T04:43:28;21.38;;;14.00;;
37693;SDS011;23531;50.122;8.644;2024-03-02T04:45:31;22.27;;;13.75;;
37693;SDS011;23531;50.122;8.644;2024-03-02T04:47:33;23.25;;;14.32;;
37693;SDS011;23531;50.122;8.644;2024-03-02T04:49:35;22.55;;;12.65;;
37693;SDS011;23531;50.122;8.644;2024-03-02T04:51:36;21.77;;;12.85;;
37693;SDS011;23531;50.122;8.644;2024-03-02T04:53:37;19.13;;;13.02;;
37693;SDS011;23531;50.122;8.644;2024-03-02T04:55:39;20.17;;;13.95;;
37693;SDS011;23531;50.122;8.644;2024-03-02T04:58:10;19.35;;;13.23;;
37693;SDS011;23531;50.122;8.644;2024-03-02T05:00:10;23.88;;;13.57;;
37693;SDS011;23531;50.122;8.644;2024-03-02T05:02:12;22.02;;;13.95;;
37693;SDS011;23531;50.122;8.644;2024-03-02T05:04:16;22.17;;;13.90;;
37693;SDS011;23531;50.122;8.644;2024-03-02T05:06:19;19.95;;;13.77;;
37693;SDS011;23531;50.122;8.644;2024-03-02T05:08:20;22.52;;;13.90;;
37693;SDS011;23531;50.122;8.644;2024-03-02T05:10:22;26.30;;;15.73;;
37693;SDS011;23531;50.122;8.644;2024-03-02T05:12:22;21.00;;;14.02;;
37693;SDS011;23531;50.122;8.644;2024-03-02T05:14:47;22.02;;;14.27;;
37693;SDS011;23531;50.122;8.644;2024-03-02T05:16:47;22.20;;;14.68;;
37693;SDS011;23531;50.122;8.644;2024-03-02T05:18:49;26.92;;;14.95;;
37693;SDS011;23531;50.122;8.644;2024-03-02T05:20:52;25.63;;;14.57;;
37693;SDS011;23531;50.122;8.644;2024-03-02T05:22:53;21.55;;;14.57;;
37693;SDS011;23531;50.122;8.644;2024-03-02T05:24:55;23.42;;;14.43;;
37693;SDS011;23531;50.122;8.644;2024-03-02T05:26:55;22.75;;;13.80;;
37693;SDS011;23531;50.122;8.644;2024-03-02T05:28:57;24.08;;;14.20;;
37693;SDS011;23531;50.122;8.644;2024-03-02T05:30:57;24.20;;;15.27;;
37693;SDS011;23531;50.122;8.644;2024-03-02T05:32:58;23.00;;;14.73;;
37693;SDS011;23531;50.122;8.644;2024-03-02T05:35:00;24.20;;;15.32;;
37693;SDS011;23531;50.122;8.644;2024-03-02T05:37:04;23.50;;;15.48;;
37693;SDS011;23531;50.122;8.644;2024-03-02T05:39:05;24.65;;;15.07;;
37693;SDS011;23531;50.122;8.644;2024-03-02T05:41:09;23.90;;;15.45;;
37693;SDS011;23531;50.122;8.644;2024-03-02T05:43:11;22.65;;;14.95;;
37693;SDS011;23531;50.122;8.644;2024-03-02T05:45:13;23.85;;;14.93;;
37693;SDS011;23531;50.122;8.644;2024-03-02T05:47:16;24.30;;;15.25;;
37693;SDS011;23531;50.122;8.644;2024-03-02T05:49:18;21.73;;;14.73;;
37693;SDS011;23531;50.122;8.644;2024-03-02T05:51:19;24.52;;;16.23;;
37693;SDS011;23531;50.122;8.644;2024-03-02T05:53:22;25.65;;;16.00;;
37693;SDS011;23531;50.122;8.644;2024-03-02T05:55:23;28.70;;;16.33;;
37693;SDS011;23531;50.122;8.644;2024-03-02T05:57:25;26.95;;;16.70;;
37693;SDS011;23531;50.122;8.644;2024-03-02T05:59:45;24.33;;;16.05;;
37693;SDS011;23531;50.122;8.644;2024-03-02T06:01:46;24.23;;;15.25;;
37693;SDS011;23531;50.122;8.644;2024-03-02T06:03:48;25.05;;;16.08;;
37693;SDS011;23531;50.122;8.644;2024-03-02T06:05:49;21.63;;;14.70;;
37693;SDS011;23531;50.122;8.644;2024-03-02T06:07:50;24.63;;;15.43;;
37693;SDS011;23531;50.122;8.644;2024-03-02T06:09:52;26.75;;;15.30;;
37693;SDS011;23531;50.122;8.644;2024-03-02T06:11:54;25.17;;;14.85;;
37693;SDS011;23531;50.122;8.644;2024-03-02T06:13:55;26.75;;;15.18;;
37693;SDS011;23531;50.122;8.644;2024-03-02T06:15:56;23.17;;;15.43;;
37693;SDS011;23531;50.122;8.644;2024-03-02T06:17:58;21.85;;;14.32;;
37693;SDS011;23531;50.122;8.644;2024-03-02T06:20:00;27.75;;;15.60;;
37693;SDS011;23531;50.122;8.644;2024-03-02T06:22:02;26.13;;;16.35;;
37693;SDS011;23531;50.122;8.644;2024-03-02T06:24:05;24.73;;;15.75;;
37693;SDS011;23531;50.122;8.644;2024-03-02T06:26:08;27.35;;;15.75;;
37693;SDS011;23531;50.122;8.644;2024-03-02T06:28:09;25.05;;;15.40;;
37693;SDS011;23531;50.122;8.644;2024-03-02T06:30:11;23.38;;;14.77;;
37693;SDS011;23531;50.122;8.644;2024-03-02T06:32:13;23.95;;;15.88;;
37693;SDS011;23531;50.122;8.644;2024-03-02T06:34:15;29.38;;;16.55;;
37693;SDS011;23531;50.122;8.644;2024-03-02T06:36:16;30.30;;;16.63;;
37693;SDS011;23531;50.122;8.644;2024-03-02T06:38:17;24.48;;;16.17;;
37693;SDS011;23531;50.122;8.644;2024-03-02T06:40:19;27.23;;;16.52;;
37693;SDS011;23531;50.122;8.644;2024-03-02T06:42:22;24.10;;;15.80;;
37693;SDS011;23531;50.122;8.644;2024-03-02T06:44:24;28.73;;;17.02;;
37693;SDS011;23531;50.122;8.644;2024-03-02T06:46:25;26.88;;;16.17;;
37693;SDS011;23531;50.122;8.644;2024-03-02T06:48:27;27.63;;;16.10;;
37693;SDS011;23531;50.122;8.644;2024-03-02T06:50:30;26.02;;;16.10;;
37693;SDS011;23531;50.122;8.644;2024-03-02T06:52:31;26.45;;;16.40;;
37693;SDS011;23531;50.122;8.644;2024-03-02T06:54:31;28.67;;;16.05;;
37693;SDS011;23531;50.122;8.644;2024-03-02T06:56:34;25.88;;;16.05;;
37693;SDS011;23531;50.122;8.644;2024-03-02T06:58:37;27.15;;;16.65;;
37693;SDS011;23531;50.122;8.644;2024-03-02T07:00:38;27.25;;;15.50;;
37693;SDS011;23531;50.122;8.644;2024-03-02T07:02:40;27.13;;;16.30;;
37693;SDS011;23531;50.122;8.644;2024-03-02T07:04:41;28.75;;;17.23;;
37693;SDS011;23531;50.122;8.644;2024-03-02T07:06:43;27.35;;;17.52;;
37693;SDS011;23531;50.122;8.644;2024-03-02T07:08:44;27.08;;;15.93;;
37693;SDS011;23531;50.122;8.644;2024-03-02T07:10:44;25.27;;;16.10;;
37693;SDS011;23531;50.122;8.644;2024-03-02T07:12:47;25.92;;;16.13;;
37693;SDS011;23531;50.122;8.644;2024-03-02T07:14:49;25.92;;;16.60;;
37693;SDS011;23531;50.122;8.644;2024-03-02T07:17:11;26.63;;;16.58;;
37693;SDS011;23531;50.122;8.644;2024-03-02T07:19:13;27.70;;;17.17;;
37693;SDS011;23531;50.122;8.644;2024-03-02T07:21:14;30.75;;;18.08;;
37693;SDS011;23531;50.122;8.644;2024-03-02T07:23:15;26.63;;;16.95;;
37693;SDS011;23531;50.122;8.644;2024-03-02T07:25:17;28.30;;;17.75;;
37693;SDS011;23531;50.122;8.644;2024-03-02T07:27:18;28.42;;;17.60;;
37693;SDS011;23531;50.122;8.644;2024-03-02T07:29:20;27.42;;;17.10;;
37693;SDS011;23531;50.122;8.644;2024-03-02T07:31:23;30.58;;;16.95;;
37693;SDS011;23531;50.122;8.644;2024-03-02T07:33:23;25.40;;;16.48;;
37693;SDS011;23531;50.122;8.644;2024-03-02T07:35:24;31.67;;;17.15;;
37693;SDS011;23531;50.122;8.644;2024-03-02T07:37:27;30.67;;;17.27;;
37693;SDS011;23531;50.122;8.644;2024-03-02T07:39:29;28.85;;;18.42;;
37693;SDS011;23531;50.122;8.644;2024-03-02T07:41:30;33.55;;;20.55;;
37693;SDS011;23531;50.122;8.644;2024-03-02T07:43:31;30.35;;;17.98;;
37693;SDS011;23531;50.122;8.644;2024-03-02T07:45:33;30.15;;;19.08;;
37693;SDS011;23531;50.122;8.644;2024-03-02T07:47:37;30.55;;;17.48;;
37693;SDS011;23531;50.122;8.644;2024-03-02T07:49:39;29.52;;;17.23;;
37693;SDS011;23531;50.122;8.644;2024-03-02T07:51:39;29.45;;;17.95;;
37693;SDS011;23531;50.122;8.644;2024-03-02T07:53:41;30.77;;;19.00;;
37693;SDS011;23531;50.122;8.644;2024-03-02T07:55:42;25.85;;;16.63;;
37693;SDS011;23531;50.122;8.644;2024-03-02T07:57:44;31.35;;;18.30;;
37693;SDS011;23531;50.122;8.644;2024-03-02T07:59:45;30.67;;;18.52;;
37693;SDS011;23531;50.122;8.644;2024-03-02T08:01:48;28.50;;;18.05;;
37693;SDS011;23531;50.122;8.644;2024-03-02T08:03:50;27.33;;;16.90;;
37693;SDS011;23531;50.122;8.644;2024-03-02T08:05:52;26.52;;;17.42;;
37693;SDS011;23531;50.122;8.644;2024-03-02T08:07:54;30.10;;;17.80;;
37693;SDS011;23531;50.122;8.644;2024-03-02T08:09:55;28.70;;;18.00;;
37693;SDS011;23531;50.122;8.644;2024-03-02T08:11:57;26.92;;;16.92;;
37693;SDS011;23531;50.122;8.644;2024-03-02T08:13:58;31.88;;;19.13;;
37693;SDS011;23531;50.122;8.644;2024-03-02T08:16:00;27.50;;;17.63;;
37693;SDS011;23531;50.122;8.644;2024-03-02T08:18:03;24.58;;;16.25;;
37693;SDS011;23531;50.122;8.644;2024-03-02T08:20:08;32.65;;;16.83;;
37693;SDS011;23531;50.122;8.644;2024-03-02T08:22:10;27.98;;;17.08;;
37693;SDS011;23531;50.122;8.644;2024-03-02T08:24:12;30.48;;;17.90;;
37693;SDS011;23531;50.122;8.644;2024-03-02T08:26:13;31.63;;;18.40;;
37693;SDS011;23531;50.122;8.644;2024-03-02T08:28:14;28.80;;;18.17;;
37693;SDS011;23531;50.122;8.644;2024-03-02T08:30:16;28.75;;;17.33;;
37693;SDS011;23531;50.122;8.644;2024-03-02T08:32:18;30.60;;;18.00;;
37693;SDS011;23531;50.122;8.644;2024-03-02T08:34:19;28.67;;;16.67;;
37693;SDS011;23531;50.122;8.644;2024-03-02T08:36:22;30.08;;;17.25;;
37693;SDS011;23531;50.122;8.644;2024-03-02T08:38:24;29.05;;;17.52;;
37693;SDS011;23531;50.122;8.644;2024-03-02T08:40:25;29.10;;;17.67;;
37693;SDS011;23531;50.122;8.644;2024-03-02T08:42:26;27.23;;;16.70;;
37693;SDS011;23531;50.122;8.644;2024-03-02T08:44:27;27.38;;;16.90;;
37693;SDS011;23531;50.122;8.644;2024-03-02T08:46:28;27.25;;;16.58;;
37693;SDS011;23531;50.122;8.644;2024-03-02T08:48:30;27.02;;;16.48;;
37693;SDS011;23531;50.122;8.644;2024-03-02T08:50:31;28.27;;;16.70;;
37693;SDS011;23531;50.122;8.644;2024-03-02T08:52:34;31.45;;;17.77;;
37693;SDS011;23531;50.122;8.644;2024-03-02T08:54:35;28.38;;;18.05;;
37693;SDS011;23531;50.122;8.644;2024-03-02T08:56:37;29.30;;;16.85;;
37693;SDS011;23531;50.122;8.644;2024-03-02T08:58:39;28.73;;;17.65;;
37693;SDS011;23531;50.122;8.644;2024-03-02T09:00:40;25.42;;;17.20;;
37693;SDS011;23531;50.122;8.644;2024-03-02T09:02:42;27.52;;;16.88;;
37693;SDS011;23531;50.122;8.644;2024-03-02T09:04:45;26.67;;;16.35;;
37693;SDS011;23531;50.122;8.644;2024-03-02T09:06:46;30.50;;;18.45;;
37693;SDS011;23531;50.122;8.644;2024-03-02T09:08:49;26.73;;;17.00;;
37693;SDS011;23531;50.122;8.644;2024-03-02T09:10:52;26.83;;;16.58;;
37693;SDS011;23531;50.122;8.644;2024-03-02T09:12:53;26.73;;;17.08;;
37693;SDS011;23531;50.122;8.644;2024-03-02T09:14:54;28.08;;;15.48;;
37693;SDS011;23531;50.122;8.644;2024-03-02T09:16:55;23.42;;;15.52;;
37693;SDS011;23531;50.122;8.644;2024-03-02T09:18:56;27.20;;;15.75;;
37693;SDS011;23531;50.122;8.644;2024-03-02T09:20:57;26.23;;;14.85;;
37693;SDS011;23531;50.122;8.644;2024-03-02T09:22:59;28.02;;;15.30;;
37693;SDS011;23531;50.122;8.644;2024-03-02T09:25:00;26.80;;;17.17;;
37693;SDS011;23531;50.122;8.644;2024-03-02T09:27:02;24.90;;;16.17;;
37693;SDS011;23531;50.122;8.644;2024-03-02T09:29:03;24.85;;;16.15;;
37693;SDS011;23531;50.122;8.644;2024-03-02T09:31:05;28.02;;;17.05;;
37693;SDS011;23531;50.122;8.644;2024-03-02T09:33:06;29.42;;;16.90;;
37693;SDS011;23531;50.122;8.644;2024-03-02T09:35:08;26.42;;;16.83;;
37693;SDS011;23531;50.122;8.644;2024-03-02T09:37:10;22.73;;;15.77;;
37693;SDS011;23531;50.122;8.644;2024-03-02T09:39:11;24.48;;;15.82;;
37693;SDS011;23531;50.122;8.644;2024-03-02T09:41:13;23.10;;;15.23;;
37693;SDS011;23531;50.122;8.644;2024-03-02T09:43:15;22.63;;;14.88;;
37693;SDS011;23531;50.122;8.644;2024-03-02T09:45:17;24.45;;;15.75;;
37693;SDS011;23531;50.122;8.644;2024-03-02T09:47:23;24.63;;;15.48;;
37693;SDS011;23531;50.122;8.644;2024-03-02T09:49:25;26.08;;;16.92;;
37693;SDS011;23531;50.122;8.644;2024-03-02T09:51:26;23.50;;;15.30;;
37693;SDS011;23531;50.122;8.644;2024-03-02T09:53:28;22.25;;;14.63;;
37693;SDS011;23531;50.122;8.644;2024-03-02T09:55:32;21.95;;;13.80;;
37693;SDS011;23531;50.122;8.644;2024-03-02T09:57:35;21.73;;;13.68;;
37693;SDS011;23531;50.122;8.644;2024-03-02T09:59:36;21.50;;;13.95;;
37693;SDS011;23531;50.122;8.644;2024-03-02T10:01:38;23.52;;;15.40;;
37693;SDS011;23531;50.122;8.644;2024-03-02T10:03:39;24.80;;;16.30;;
37693;SDS011;23531;50.122;8.644;2024-03-02T10:05:41;22.63;;;14.07;;
37693;SDS011;23531;50.122;8.644;2024-03-02T10:07:42;23.52;;;14.02;;
37693;SDS011;23531;50.122;8.644;2024-03-02T10:10:00;23.95;;;14.43;;
37693;SDS011;23531;50.122;8.644;2024-03-02T10:12:15;26.70;;;16.67;;
37693;SDS011;23531;50.122;8.644;2024-03-02T10:14:19;23.25;;;14.75;;
37693;SDS011;23531;50.122;8.644;2024-03-02T10:16:20;27.20;;;17.88;;
37693;SDS011;23531;50.122;8.644;2024-03-02T10:18:26;18.92;;;13.65;;
37693;SDS011;23531;50.122;8.644;2024-03-02T10:20:29;24.52;;;14.70;;
37693;SDS011;23531;50.122;8.644;2024-03-02T10:22:29;23.25;;;15.23;;
37693;SDS011;23531;50.122;8.644;2024-03-02T10:24:37;26.52;;;17.30;;
37693;SDS011;23531;50.122;8.644;2024-03-02T10:26:40;22.40;;;14.27;;
37693;SDS011;23531;50.122;8.644;2024-03-02T10:28:42;19.08;;;13.50;;
37693;SDS011;23531;50.122;8.644;2024-03-02T10:30:49;23.00;;;14.13;;
37693;SDS011;23531;50.122;8.644;2024-03-02T10:32:52;20.60;;;14.35;;
37693;SDS011;23531;50.122;8.644;2024-03-02T10:34:54;21.77;;;14.57;;
37693;SDS011;23531;50.122;8.644;2024-03-02T10:36:57;22.25;;;14.27;;
37693;SDS011;23531;50.122;8.644;2024-03-02T10:38:58;21.27;;;14.52;;
37693;SDS011;23531;50.122;8.644;2024-03-02T10:41:00;25.88;;;16.42;;
37693;SDS011;23531;50.122;8.644;2024-03-02T10:43:03;16.95;;;12.07;;
37693;SDS011;23531;50.122;8.644;2024-03-02T10:45:07;23.70;;;13.88;;
37693;SDS011;23531;50.122;8.644;2024-03-02T10:47:12;20.80;;;13.48;;
37693;SDS011;23531;50.122;8.644;2024-03-02T10:49:15;21.23;;;12.52;;
37693;SDS011;23531;50.122;8.644;2024-03-02T10:51:15;18.90;;;12.30;;
37693;SDS011;23531;50.122;8.644;2024-03-02T10:53:17;20.05;;;12.35;;
37693;SDS011;23531;50.122;8.644;2024-03-02T10:55:18;22.48;;;12.50;;
37693;SDS011;23531;50.122;8.644;2024-03-02T10:57:20;17.45;;;11.75;;
37693;SDS011;23531;50.122;8.644;2024-03-02T10:59:24;21.20;;;12.68;;
37693;SDS011;23531;50.122;8.644;2024-03-02T11:01:29;18.77;;;12.45;;
37693;SDS011;23531;50.122;8.644;2024-03-02T11:03:33;15.57;;;11.80;;
37693;SDS011;23531;50.122;8.644;2024-03-02T11:05:38;20.40;;;12.50;;
37693;SDS011;23531;50.122;8.644;2024-03-02T11:07:42;16.98;;;11.52;;
37693;SDS011;23531;50.122;8.644;2024-03-02T11:09:45;20.27;;;11.98;;
37693;SDS011;23531;50.122;8.644;2024-03-02T11:11:56;18.92;;;12.48;;
37693;SDS011;23531;50.122;8.644;2024-03-02T11:14:04;15.95;;;11.57;;
37693;SDS011;23531;50.122;8.644;2024-03-02T11:16:11;13.80;;;10.27;;
37693;SDS011;23531;50.122;8.644;2024-03-02T11:18:18;18.92;;;12.07;;
37693;SDS011;23531;50.122;8.644;2024-03-02T11:20:21;16.13;;;11.50;;
37693;SDS011;23531;50.122;8.644;2024-03-02T11:22:24;15.18;;;10.75;;
37693;SDS011;23531;50.122;8.644;2024-03-02T11:24:32;15.30;;;10.90;;
37693;SDS011;23531;50.122;8.644;2024-03-02T11:26:36;15.57;;;10.07;;
37693;SDS011;23531;50.122;8.644;2024-03-02T11:28:39;16.30;;;10.60;;
37693;SDS011;23531;50.122;8.644;2024-03-02T11:30:49;14.55;;;10.43;;
37693;SDS011;23531;50.122;8.644;2024-03-02T11:32:54;16.40;;;11.57;;
37693;SDS011;23531;50.122;8.644;2024-03-02T11:34:56;15.18;;;10.07;;
37693;SDS011;23531;50.122;8.644;2024-03-02T11:36:59;12.50;;;9.73;;
37693;SDS011;23531;50.122;8.644;2024-03-02T11:39:02;16.17;;;10.25;;
37693;SDS011;23531;50.122;8.644;2024-03-02T11:41:06;14.88;;;9.65;;
37693;SDS011;23531;50.122;8.644;2024-03-02T11:43:08;16.00;;;10.05;;
37693;SDS011;23531;50.122;8.644;2024-03-02T11:45:09;13.07;;;9.73;;
37693;SDS011;23531;50.122;8.644;2024-03-02T11:47:11;14.80;;;10.07;;
37693;SDS011;23531;50.122;8.644;2024-03-02T11:49:17;17.65;;;11.27;;
37693;SDS011;23531;50.122;8.644;2024-03-02T11:51:37;18.95;;;10.75;;
37693;SDS011;23531;50.122;8.644;2024-03-02T11:53:52;15.68;;;9.90;;
37693;SDS011;23531;50.122;8.644;2024-03-02T11:55:56;16.88;;;11.70;;
37693;SDS011;23531;50.122;8.644;2024-03-02T11:57:58;19.60;;;11.95;;
37693;SDS011;23531;50.122;8.644;2024-03-02T12:00:02;15.38;;;11.40;;